Time;durP1;ratioP1;P1;durP2;ratioP2;P2;SDS_P1;SDS_P2;PMS_P1;PMS_P2;Temp;Humidity;BMP_temperature;BMP_pressure;BME280_temperature;BME280_humidity;BME280_pressure;Samples;Min_cycle;Max_cycle;Signal;HPM_P1;HPM_P2
2021/04/04 00:01:47;;;;;;;;;;;;;;;6.04;nan;100003.66;5058959;28;19928;-77
2021/04/04 00:04:13;;;;;;;;;;;;;;;5.80;nan;99999.28;5059052;28;19987;-76
2021/04/04 00:06:38;;;;;;;;;;;;;;;5.61;nan;100000.06;5041856;28;19986;-77
2021/04/04 00:09:04;;;;;;;;;;;;;;;5.28;nan;100014.38;5057887;28;19916;-77
2021/04/04 00:11:29;;;;;;;;;;;;;;;5.33;nan;100001.63;5041438;28;19923;-76
2021/04/04 00:13:55;;;;;;;;;;;;;;;5.46;nan;100003.41;5057568;28;19924;-77
2021/04/04 00:16:20;;;;;;;;;;;;;;;5.45;nan;99992.34;5037329;28;19920;-76
2021/04/04 00:18:45;;;;;;;;;;;;;;;5.54;nan;99995.78;5056703;28;19928;-76
2021/04/04 00:21:11;;;;;;;;;;;;;;;5.54;nan;99990.66;5058493;28;19924;-76
2021/04/04 00:23:36;;;;;;;;;;;;;;;5.78;nan;99989.91;5057796;28;19977;-77
2021/04/04 00:26:02;;;;;;;;;;;;;;;5.87;nan;99985.69;5058171;28;19928;-77
2021/04/04 00:28:27;;;;;;;;;;;;;;;5.89;nan;99989.97;5037950;28;19928;-77
2021/04/04 00:30:52;;;;;;;;;;;;;;;5.57;nan;99995.81;5005736;28;19924;-77
2021/04/04 00:33:18;;;;;;;;;;;;;;;5.40;nan;99991.44;5036115;28;19920;-77
2021/04/04 00:35:44;;;;;;;;;;;;;;;5.56;nan;99994.09;5024090;28;19955;-76
2021/04/04 00:38:10;;;;;;;;;;;;;;;5.68;nan;99988.16;5038623;28;19924;-77
2021/04/04 00:40:35;;;;;;;;;;;;;;;5.63;nan;99990.69;5057025;28;20773;-77
2021/04/04 00:43:01;;;;;;;;;;;;;;;5.49;nan;99990.63;5056490;28;19924;-76
2021/04/04 00:45:27;;;;;;;;;;;;;;;5.66;nan;99988.19;5038941;28;19947;-77
2021/04/04 00:47:52;;;;;;;;;;;;;;;5.55;nan;99990.69;5039089;28;20010;-77
2021/04/04 00:50:21;;;;;;;;;;;;;;;5.71;nan;99978.81;5041233;28;20680;-77
2021/04/04 00:52:47;;;;;;;;;;;;;;;5.71;nan;99978.81;5022425;28;19932;-77
2021/04/04 00:55:13;;;;;;;;;;;;;;;5.88;nan;99981.41;5039492;28;19924;-77
2021/04/04 00:57:39;;;;;;;;;;;;;;;5.85;nan;99979.69;5057685;28;19916;-77
2021/04/04 01:00:07;;;;;;;;;;;;;;;5.73;nan;99972.00;5038465;28;20061;-76
2021/04/04 01:02:33;;;;;;;;;;;;;;;5.78;nan;99970.31;5054849;28;19920;-77
2021/04/04 01:05:00;;;;;;;;;;;;;;;5.70;nan;99971.97;5039119;28;19970;-77
2021/04/04 01:07:25;;;;;;;;;;;;;;;5.72;nan;99972.84;5038199;28;19963;-77
2021/04/04 01:09:51;;;;;;;;;;;;;;;6.00;nan;99971.28;5037765;28;19967;-77
2021/04/04 01:12:19;;;;;;;;;;;;;;;5.73;nan;99966.91;5041015;28;19919;-76
2021/04/04 01:14:45;;;;;;;;;;;;;;;6.04;nan;99962.75;5055820;28;20798;-77
2021/04/04 01:17:11;;;;;;;;;;;;;;;5.83;nan;99963.50;5056756;28;19920;-77
2021/04/04 01:19:45;;;;;;;;;;;;;;;5.65;nan;99968.56;5038766;28;19927;-76
2021/04/04 01:22:18;;;;;;;;;;;;;;;5.58;nan;99966.84;5039181;28;20019;-77
2021/04/04 01:24:53;;;;;;;;;;;;;;;5.52;nan;99971.91;5038831;28;20003;-77
2021/04/04 01:27:34;;;;;;;;;;;;;;;5.51;nan;99976.19;5040594;28;19920;-77
2021/04/04 01:29:59;;;;;;;;;;;;;;;5.45;nan;99971.91;5055674;28;19931;-77
2021/04/04 01:32:24;;;;;;;;;;;;;;;5.43;nan;99973.59;5055614;28;20345;-76
2021/04/04 01:34:50;;;;;;;;;;;;;;;5.52;nan;99966.81;5040809;28;20385;-77
2021/04/04 01:37:15;;;;;;;;;;;;;;;5.41;nan;99965.06;5055485;28;19916;-77
2021/04/04 01:39:45;;;;;;;;;;;;;;;5.61;nan;99962.59;5039946;28;19916;-77
2021/04/04 01:42:11;;;;;;;;;;;;;;;5.48;nan;99972.78;5038339;28;19928;-77
2021/04/04 01:44:37;;;;;;;;;;;;;;;5.38;nan;99965.06;5039706;28;20417;-76
2021/04/04 01:47:02;;;;;;;;;;;;;;;5.27;nan;99950.50;5039129;28;19921;-77
2021/04/04 01:49:28;;;;;;;;;;;;;;;5.28;nan;99953.09;5038655;28;19924;-77
2021/04/04 01:51:53;;;;;;;;;;;;;;;5.18;nan;99953.91;5037619;28;20640;-77
2021/04/04 01:54:18;;;;;;;;;;;;;;;5.22;nan;99955.59;5036826;28;19925;-77
2021/04/04 01:56:44;;;;;;;;;;;;;;;5.06;nan;99956.38;5039194;28;19982;-77
2021/04/04 01:59:09;;;;;;;;;;;;;;;5.27;nan;99958.19;5040416;28;19924;-77
2021/04/04 02:01:35;;;;;;;;;;;;;;;5.31;nan;99959.91;5038286;28;19924;-77
2021/04/04 02:04:03;;;;;;;;;;;;;;;5.16;nan;99959.00;5039258;28;20128;-77
2021/04/04 02:06:28;;;;;;;;;;;;;;;5.19;nan;99959.00;5056025;28;19966;-77
2021/04/04 02:08:54;;;;;;;;;;;;;;;5.06;nan;99967.44;5037998;28;20049;-76
2021/04/04 02:11:22;;;;;;;;;;;;;;;4.81;nan;99962.19;5040051;28;19927;-77
2021/04/04 02:13:47;;;;;;;;;;;;;;;4.85;nan;99957.94;5038763;28;19927;-77
2021/04/04 02:16:12;;;;;;;;;;;;;;;4.94;nan;99954.59;5038624;28;19925;-77
2021/04/04 02:18:38;;;;;;;;;;;;;;;4.98;nan;99946.97;5038856;28;19921;-77
2021/04/04 02:21:04;;;;;;;;;;;;;;;4.65;nan;99949.28;5034343;28;19924;-77
2021/04/04 02:23:29;;;;;;;;;;;;;;;4.79;nan;99947.72;5039243;28;19925;-77
2021/04/04 02:25:55;;;;;;;;;;;;;;;4.72;nan;99956.16;5037986;28;19923;-78
2021/04/04 02:28:21;;;;;;;;;;;;;;;4.79;nan;99952.81;5039789;28;19927;-77
2021/04/04 02:30:47;;;;;;;;;;;;;;;4.69;nan;99945.94;5038325;28;19978;-77
2021/04/04 02:33:15;;;;;;;;;;;;;;;4.94;nan;99942.69;5056241;28;20764;-77
2021/04/04 02:35:41;;;;;;;;;;;;;;;4.88;nan;99947.78;5039114;28;19920;-76
2021/04/04 02:38:11;;;;;;;;;;;;;;;5.12;nan;99946.19;5038821;28;20285;-77
2021/04/04 02:40:37;;;;;;;;;;;;;;;5.29;nan;99938.59;5037771;28;19925;-77
2021/04/04 02:43:02;;;;;;;;;;;;;;;5.06;nan;99939.34;5036567;28;19924;-77
2021/04/04 02:45:28;;;;;;;;;;;;;;;5.07;nan;99930.00;5055266;28;19956;-77
2021/04/04 02:47:58;;;;;;;;;;;;;;;5.04;nan;99933.41;5038251;28;19978;-77
2021/04/04 02:50:25;;;;;;;;;;;;;;;5.29;nan;99934.38;5038048;28;19924;-77
2021/04/04 02:52:50;;;;;;;;;;;;;;;5.26;nan;99930.94;5041417;28;19924;-77
2021/04/04 02:55:16;;;;;;;;;;;;;;;5.52;nan;99931.03;5043252;28;19924;-77
2021/04/04 02:57:41;;;;;;;;;;;;;;;4.94;nan;99932.47;5042077;28;20015;-77
2021/04/04 03:00:07;;;;;;;;;;;;;;;5.00;nan;99929.97;5059621;28;19944;-77
2021/04/04 03:02:33;;;;;;;;;;;;;;;5.07;nan;99928.31;5041293;28;19928;-77
2021/04/04 03:04:59;;;;;;;;;;;;;;;4.90;nan;99928.19;5043193;28;19916;-77
2021/04/04 03:07:25;;;;;;;;;;;;;;;4.97;nan;99927.41;5041663;28;19920;-77
2021/04/04 03:09:51;;;;;;;;;;;;;;;5.09;nan;99926.63;5059857;28;19916;-77
2021/04/04 03:12:16;;;;;;;;;;;;;;;4.96;nan;99923.13;5026214;28;20289;-77
2021/04/04 03:14:42;;;;;;;;;;;;;;;5.00;nan;99922.31;5025638;28;19920;-77
2021/04/04 03:17:08;;;;;;;;;;;;;;;4.92;nan;99926.50;5042450;28;19925;-77
2021/04/04 03:19:33;;;;;;;;;;;;;;;5.03;nan;99929.97;5042140;28;19923;-77
2021/04/04 03:21:59;;;;;;;;;;;;;;;5.19;nan;99927.50;5039753;28;19935;-77
2021/04/04 03:24:24;;;;;;;;;;;;;;;5.10;nan;99927.47;5041108;28;20383;-77
2021/04/04 03:26:49;;;;;;;;;;;;;;;5.14;nan;99924.09;5059969;28;20510;-77
2021/04/04 03:29:15;;;;;;;;;;;;;;;4.97;nan;99929.09;5041122;28;19913;-77
2021/04/04 03:31:40;;;;;;;;;;;;;;;4.96;nan;99928.25;5057236;28;20019;-77
2021/04/04 03:34:05;;;;;;;;;;;;;;;5.05;nan;99930.00;5039210;28;19920;-77
2021/04/04 03:36:31;;;;;;;;;;;;;;;4.92;nan;99926.50;5042786;28;19993;-77
2021/04/04 03:38:56;;;;;;;;;;;;;;;5.07;nan;99930.00;5041999;28;19943;-77
2021/04/04 03:41:23;;;;;;;;;;;;;;;4.93;nan;99919.72;5041341;28;20297;-77
2021/04/04 03:43:49;;;;;;;;;;;;;;;4.76;nan;99927.25;5025185;28;19920;-77
2021/04/04 03:46:15;;;;;;;;;;;;;;;4.71;nan;99934.88;5041692;28;20613;-76
2021/04/04 03:48:40;;;;;;;;;;;;;;;4.76;nan;99927.25;5040686;28;20010;-76
2021/04/04 03:51:06;;;;;;;;;;;;;;;4.68;nan;99932.31;5025787;28;20043;-76
2021/04/04 03:53:32;;;;;;;;;;;;;;;4.71;nan;99929.78;5041462;28;19920;-77
2021/04/04 03:56:02;;;;;;;;;;;;;;;4.75;nan;99930.69;5042209;28;19923;-77
2021/04/04 03:58:28;;;;;;;;;;;;;;;4.95;nan;99931.66;5057933;28;19916;-77
2021/04/04 04:00:54;;;;;;;;;;;;;;;4.77;nan;99929.84;5039866;28;19924;-76
2021/04/04 04:03:19;;;;;;;;;;;;;;;4.92;nan;99920.56;5039477;28;19920;-76
2021/04/04 04:05:48;;;;;;;;;;;;;;;4.90;nan;99915.44;5041609;28;20497;-76
2021/04/04 04:08:14;;;;;;;;;;;;;;;4.84;nan;99923.06;5024888;28;20336;-76
2021/04/04 04:10:39;;;;;;;;;;;;;;;4.79;nan;99923.06;5049684;28;19931;-76
2021/04/04 04:13:05;;;;;;;;;;;;;;;4.81;nan;99917.94;5041993;28;19923;-76
2021/04/04 04:15:30;;;;;;;;;;;;;;;5.33;nan;99910.53;5042663;28;20008;-76
2021/04/04 04:17:56;;;;;;;;;;;;;;;5.34;nan;99902.03;5041372;28;20019;-76
2021/04/04 04:20:22;;;;;;;;;;;;;;;5.37;nan;99896.94;5040887;28;20003;-76
2021/04/04 04:22:47;;;;;;;;;;;;;;;5.36;nan;99894.38;5020982;28;19969;-76
2021/04/04 04:25:12;;;;;;;;;;;;;;;5.70;nan;99892.75;5058733;28;20018;-76
2021/04/04 04:27:38;;;;;;;;;;;;;;;5.38;nan;99892.66;5023981;28;19920;-76
2021/04/04 04:30:04;;;;;;;;;;;;;;;5.46;nan;99888.44;5024773;28;21262;-76
2021/04/04 04:32:30;;;;;;;;;;;;;;;5.56;nan;99886.78;5044786;28;19978;-76
2021/04/04 04:34:55;;;;;;;;;;;;;;;5.27;nan;99895.22;5037874;28;20716;-76
2021/04/04 04:37:20;;;;;;;;;;;;;;;5.21;nan;99895.19;5037004;28;19967;-76
2021/04/04 04:39:46;;;;;;;;;;;;;;;5.01;nan;99898.47;5038153;28;19920;-77
2021/04/04 04:42:11;;;;;;;;;;;;;;;5.14;nan;99883.22;5036532;28;21100;-76
2021/04/04 04:44:38;;;;;;;;;;;;;;;5.11;nan;99888.31;5037389;28;19924;-76
2021/04/04 04:47:03;;;;;;;;;;;;;;;4.93;nan;99892.50;5036905;28;19971;-76
2021/04/04 04:49:28;;;;;;;;;;;;;;;4.94;nan;99891.63;5038978;28;19956;-76
2021/04/04 04:51:54;;;;;;;;;;;;;;;5.07;nan;99886.63;5036535;28;19917;-77
2021/04/04 04:54:19;;;;;;;;;;;;;;;5.08;nan;99888.31;5038260;28;20108;-76
2021/04/04 04:56:45;;;;;;;;;;;;;;;4.99;nan;99887.41;5035841;28;19931;-76
2021/04/04 04:59:10;;;;;;;;;;;;;;;4.82;nan;99887.31;5038036;28;19925;-76
2021/04/04 05:01:37;;;;;;;;;;;;;;;4.88;nan;99886.53;5036019;28;20611;-76
2021/04/04 05:04:03;;;;;;;;;;;;;;;4.65;nan;99885.53;5035994;28;20039;-76
2021/04/04 05:06:28;;;;;;;;;;;;;;;4.68;nan;99883.84;5038406;28;19923;-77
2021/04/04 05:08:54;;;;;;;;;;;;;;;4.84;nan;99884.78;5038779;28;19956;-77
2021/04/04 05:11:19;;;;;;;;;;;;;;;4.87;nan;99883.97;5038256;28;19924;-76
2021/04/04 05:13:45;;;;;;;;;;;;;;;4.96;nan;99879.75;5038083;28;19924;-77
2021/04/04 05:16:10;;;;;;;;;;;;;;;4.74;nan;99877.91;5037711;28;20453;-76
2021/04/04 05:18:36;;;;;;;;;;;;;;;4.31;nan;99882.72;5023080;28;19947;-77
2021/04/04 05:21:01;;;;;;;;;;;;;;;4.43;nan;99882.84;5037316;28;19924;-76
2021/04/04 05:23:27;;;;;;;;;;;;;;;4.55;nan;99888.00;5037975;28;20428;-76
2021/04/04 05:25:52;;;;;;;;;;;;;;;4.54;nan;99890.56;5040492;28;19921;-76
2021/04/04 05:28:18;;;;;;;;;;;;;;;4.58;nan;99887.16;5037708;28;19924;-75
2021/04/04 05:30:44;;;;;;;;;;;;;;;4.66;nan;99889.78;5036817;28;19974;-76
2021/04/04 05:33:10;;;;;;;;;;;;;;;4.66;nan;99885.53;5037156;28;19928;-75
2021/04/04 05:35:36;;;;;;;;;;;;;;;4.49;nan;99892.22;5039387;28;19974;-76
2021/04/04 05:38:01;;;;;;;;;;;;;;;4.37;nan;99892.97;5041550;28;19994;-75
2021/04/04 05:40:28;;;;;;;;;;;;;;;4.47;nan;99887.13;5039015;28;20301;-76
2021/04/04 05:42:54;;;;;;;;;;;;;;;4.44;nan;99889.63;5037347;28;20355;-76
2021/04/04 05:45:23;;;;;;;;;;;;;;;4.37;nan;99883.63;5036766;28;20285;-76
2021/04/04 05:47:53;;;;;;;;;;;;;;;4.50;nan;99889.69;5036896;28;20476;-76
2021/04/04 05:50:23;;;;;;;;;;;;;;;4.43;nan;99889.66;5039038;28;19917;-76
2021/04/04 05:52:53;;;;;;;;;;;;;;;4.52;nan;99890.56;5037253;28;19920;-76
2021/04/04 05:55:31;;;;;;;;;;;;;;;4.47;nan;99884.56;5019727;28;19921;-76
2021/04/04 05:58:01;;;;;;;;;;;;;;;4.45;nan;99885.38;5038469;28;19921;-76
2021/04/04 06:00:28;;;;;;;;;;;;;;;4.67;nan;99881.28;5035396;28;19921;-75
2021/04/04 06:02:56;;;;;;;;;;;;;;;4.52;nan;99879.50;5036723;28;19973;-76
2021/04/04 06:05:34;;;;;;;;;;;;;;;4.57;nan;99886.31;5038986;28;19920;-76
2021/04/04 06:08:18;;;;;;;;;;;;;;;4.51;nan;99886.28;5038712;28;19998;-76
2021/04/04 06:10:50;;;;;;;;;;;;;;;4.66;nan;99879.59;5041212;28;19999;-75
2021/04/04 06:13:45;;;;;;;;;;;;;;;4.67;nan;99873.63;5037805;28;19924;-76
2021/04/04 06:16:17;;;;;;;;;;;;;;;4.65;nan;99872.75;5030027;28;19920;-76
2021/04/04 06:18:48;;;;;;;;;;;;;;;4.58;nan;99877.84;5039612;28;19967;-76
2021/04/04 06:21:21;;;;;;;;;;;;;;;4.51;nan;99876.06;5021971;28;20366;-76
2021/04/04 06:23:47;;;;;;;;;;;;;;;4.59;nan;99879.53;5038240;28;20356;-76
2021/04/04 06:26:30;;;;;;;;;;;;;;;4.65;nan;99888.06;5034022;28;20451;-76
2021/04/04 06:29:11;;;;;;;;;;;;;;;4.63;nan;99882.97;5037111;28;19971;-75
2021/04/04 06:31:55;;;;;;;;;;;;;;;4.73;nan;99881.31;5046841;28;20501;-76
2021/04/04 06:34:37;;;;;;;;;;;;;;;4.81;nan;99879.66;5038084;28;19951;-76
2021/04/04 06:37:03;;;;;;;;;;;;;;;4.78;nan;99879.66;5038551;28;19966;-76
2021/04/04 06:39:47;;;;;;;;;;;;;;;4.40;nan;99883.66;5038080;28;19936;-76
2021/04/04 06:42:29;;;;;;;;;;;;;;;4.65;nan;99883.81;5055464;28;19924;-76
2021/04/04 06:45:00;;;;;;;;;;;;;;;4.60;nan;99880.38;5039273;28;20006;-76
2021/04/04 06:47:40;;;;;;;;;;;;;;;4.55;nan;99888.00;5039133;28;20050;-76
2021/04/04 06:50:10;;;;;;;;;;;;;;;4.66;nan;99889.78;5039717;28;19928;-76
2021/04/04 06:52:54;;;;;;;;;;;;;;;4.73;nan;99882.16;5040107;28;19931;-76
2021/04/04 06:55:41;;;;;;;;;;;;;;;4.71;nan;99893.22;5043218;28;19920;-76
2021/04/04 06:58:15;;;;;;;;;;;;;;;4.63;nan;99884.66;5042072;28;20757;-76
2021/04/04 07:00:45;;;;;;;;;;;;;;;4.78;nan;99889.84;5059700;28;19939;-77
2021/04/04 07:03:13;;;;;;;;;;;;;;;4.96;nan;99889.09;5042560;28;20403;-76
2021/04/04 07:05:57;;;;;;;;;;;;;;;4.65;nan;99890.63;5032765;28;19920;-76
2021/04/04 07:08:41;;;;;;;;;;;;;;;4.72;nan;99885.59;5055832;28;19942;-76
2021/04/04 07:11:24;;;;;;;;;;;;;;;4.94;nan;99890.78;5059538;28;19920;-77
2021/04/04 07:13:56;;;;;;;;;;;;;;;4.76;nan;99886.44;5043530;28;19921;-77
2021/04/04 07:16:21;;;;;;;;;;;;;;;5.07;nan;99884.06;5060793;28;19920;-77
2021/04/04 07:19:05;;;;;;;;;;;;;;;4.73;nan;99889.81;5059588;28;19989;-76
2021/04/04 07:21:43;;;;;;;;;;;;;;;4.78;nan;99889.84;5039332;28;19924;-76
2021/04/04 07:24:14;;;;;;;;;;;;;;;4.92;nan;99888.22;5060915;28;20370;-76
2021/04/04 07:27:08;;;;;;;;;;;;;;;4.94;nan;99881.44;5064713;28;19912;-76
2021/04/04 07:29:52;;;;;;;;;;;;;;;5.00;nan;99886.56;5040456;28;20757;-76
2021/04/04 07:32:18;;;;;;;;;;;;;;;4.92;nan;99883.13;5067032;28;19927;-76
2021/04/04 07:34:48;;;;;;;;;;;;;;;4.65;nan;99888.06;5062008;28;19912;-76
2021/04/04 07:37:25;;;;;;;;;;;;;;;4.78;nan;99884.75;5041801;28;19920;-76
2021/04/04 07:40:14;;;;;;;;;;;;;;;4.88;nan;99886.53;5069506;28;20011;-76
2021/04/04 07:43:00;;;;;;;;;;;;;;;4.96;nan;99881.44;5057146;28;19927;-76
2021/04/04 07:45:27;;;;;;;;;;;;;;;4.86;nan;99885.66;5051243;28;19959;-76
2021/04/04 07:48:05;;;;;;;;;;;;;;;5.07;nan;99881.50;5051269;28;19922;-76
2021/04/04 07:50:32;;;;;;;;;;;;;;;4.83;nan;99877.97;5050636;28;20369;-77
2021/04/04 07:52:59;;;;;;;;;;;;;;;4.84;nan;99884.78;5051383;28;19920;-76
2021/04/04 07:55:43;;;;;;;;;;;;;;;4.96;nan;99884.84;5051125;28;20652;-76
2021/04/04 07:58:44;;;;;;;;;;;;;;;5.10;nan;99881.50;5069401;28;19912;-76
2021/04/04 08:01:23;;;;;;;;;;;;;;;4.97;nan;99886.56;4984299;28;19992;-76
2021/04/04 08:03:49;;;;;;;;;;;;;;;4.94;nan;99891.63;5021946;28;19959;-77
2021/04/04 08:06:15;;;;;;;;;;;;;;;4.65;nan;99893.16;5049824;28;19994;-77
2021/04/04 08:08:41;;;;;;;;;;;;;;;4.93;nan;99889.09;5049146;28;19920;-76
2021/04/04 08:11:09;;;;;;;;;;;;;;;4.94;nan;99885.69;5049300;28;19944;-76
2021/04/04 08:13:41;;;;;;;;;;;;;;;4.92;nan;99880.56;5052205;28;19924;-77
2021/04/04 08:16:06;;;;;;;;;;;;;;;4.71;nan;99885.56;5067572;28;19923;-77
2021/04/04 08:18:31;;;;;;;;;;;;;;;5.06;nan;99887.44;5068038;28;20007;-76
2021/04/04 08:20:57;;;;;;;;;;;;;;;5.19;nan;99886.66;5051359;28;19966;-76
2021/04/04 08:23:22;;;;;;;;;;;;;;;4.89;nan;99892.47;5033036;28;20871;-77
2021/04/04 08:25:56;;;;;;;;;;;;;;;4.89;nan;99888.22;5069256;28;19912;-77
2021/04/04 08:28:24;;;;;;;;;;;;;;;5.18;nan;99887.50;5047998;28;20356;-77
2021/04/04 08:30:52;;;;;;;;;;;;;;;5.23;nan;99885.81;5066158;28;20059;-77
2021/04/04 08:33:20;;;;;;;;;;;;;;;5.17;nan;99890.91;5049936;28;19920;-77
2021/04/04 08:35:46;;;;;;;;;;;;;;;5.35;nan;99897.78;5049293;28;19916;-77
2021/04/04 08:38:14;;;;;;;;;;;;;;;5.17;nan;99903.66;5052085;28;19994;-77
2021/04/04 08:40:39;;;;;;;;;;;;;;;5.12;nan;99906.19;5046729;28;19989;-76
2021/04/04 08:43:05;;;;;;;;;;;;;;;4.86;nan;99906.06;5047002;28;19921;-77
2021/04/04 08:45:30;;;;;;;;;;;;;;;5.02;nan;99905.31;5048003;28;20335;-77
2021/04/04 08:47:56;;;;;;;;;;;;;;;5.05;nan;99909.56;5064407;28;19974;-77
2021/04/04 08:50:21;;;;;;;;;;;;;;;5.07;nan;99912.16;5045812;28;19932;-77
2021/04/04 08:52:49;;;;;;;;;;;;;;;5.19;nan;99907.09;5047904;28;19968;-76
2021/04/04 08:55:16;;;;;;;;;;;;;;;5.02;nan;99914.66;5045813;28;19916;-77
2021/04/04 08:57:44;;;;;;;;;;;;;;;5.23;nan;99903.69;5045464;28;19968;-76
2021/04/04 09:00:10;;;;;;;;;;;;;;;5.28;nan;99904.56;5045884;28;19912;-77
2021/04/04 09:02:36;;;;;;;;;;;;;;;5.06;nan;99910.41;5045093;28;20008;-77
2021/04/04 09:05:03;;;;;;;;;;;;;;;5.24;nan;99907.94;5045706;28;19978;-76
2021/04/04 09:07:28;;;;;;;;;;;;;;;5.42;nan;99907.16;5046582;28;19919;-77
2021/04/04 09:09:53;;;;;;;;;;;;;;;5.31;nan;99908.81;5064018;28;19912;-77
2021/04/04 09:12:19;;;;;;;;;;;;;;;5.20;nan;99919.00;5063672;28;20492;-77
2021/04/04 09:14:44;;;;;;;;;;;;;;;5.12;nan;99918.13;5046026;28;20452;-77
2021/04/04 09:17:10;;;;;;;;;;;;;;;5.17;nan;99914.72;5063103;28;19970;-77
2021/04/04 09:19:37;;;;;;;;;;;;;;;5.51;nan;99903.78;5045628;28;20057;-77
2021/04/04 09:22:04;;;;;;;;;;;;;;;5.27;nan;99907.97;5063846;28;19920;-76
2021/04/04 09:24:30;;;;;;;;;;;;;;;5.19;nan;99912.19;5044366;28;19932;-77
2021/04/04 09:26:55;;;;;;;;;;;;;;;5.50;nan;99897.00;5046087;28;19925;-76
2021/04/04 09:29:21;;;;;;;;;;;;;;;5.53;nan;99897.00;5042914;28;20011;-76
2021/04/04 09:31:50;;;;;;;;;;;;;;;5.39;nan;99902.06;5051951;28;19986;-76
2021/04/04 09:34:16;;;;;;;;;;;;;;;5.57;nan;99898.72;5061233;28;19916;-76
2021/04/04 09:36:48;;;;;;;;;;;;;;;5.43;nan;99896.97;5061279;28;19947;-76
2021/04/04 09:39:14;;;;;;;;;;;;;;;5.39;nan;99896.94;5043538;28;20357;-76
2021/04/04 09:41:40;;;;;;;;;;;;;;;5.72;nan;99893.63;5043083;28;19936;-76
2021/04/04 09:44:06;;;;;;;;;;;;;;;6.44;nan;99887.75;5026804;28;19912;-76
2021/04/04 09:46:31;;;;;;;;;;;;;;;6.05;nan;99881.78;5042716;28;19928;-76
2021/04/04 09:48:57;;;;;;;;;;;;;;;5.87;nan;99893.66;5042995;28;20296;-76
2021/04/04 09:51:23;;;;;;;;;;;;;;;5.91;nan;99888.53;5043175;28;19920;-76
2021/04/04 09:53:49;;;;;;;;;;;;;;;6.13;nan;99874.94;5025926;28;19920;-76
2021/04/04 09:56:14;;;;;;;;;;;;;;;6.02;nan;99876.63;5042351;28;19917;-76
2021/04/04 09:58:49;;;;;;;;;;;;;;;5.90;nan;99881.72;5058163;28;19920;-76
2021/04/04 10:01:19;;;;;;;;;;;;;;;6.18;nan;99865.59;5041463;28;19920;-75
2021/04/04 10:03:56;;;;;;;;;;;;;;;5.89;nan;99872.38;5042600;28;19931;-76
2021/04/04 10:06:22;;;;;;;;;;;;;;;5.87;nan;99868.09;5060069;28;19966;-76
2021/04/04 10:08:54;;;;;;;;;;;;;;;5.95;nan;99867.28;5041617;28;19998;-76
2021/04/04 10:11:20;;;;;;;;;;;;;;;6.17;nan;99866.44;5041415;28;19931;-76
2021/04/04 10:13:45;;;;;;;;;;;;;;;5.61;nan;99870.63;5041583;28;19920;-76
2021/04/04 10:16:23;;;;;;;;;;;;;;;5.74;nan;99874.03;5041617;28;20370;-76
2021/04/04 10:19:01;;;;;;;;;;;;;;;6.30;nan;99867.28;5039947;28;19927;-76
2021/04/04 10:21:27;;;;;;;;;;;;;;;6.06;nan;99865.56;5041046;28;20403;-76
2021/04/04 10:23:52;;;;;;;;;;;;;;;6.00;nan;99861.31;5041204;28;20003;-76
2021/04/04 10:26:19;;;;;;;;;;;;;;;5.95;nan;99849.38;5041290;28;19967;-76
2021/04/04 10:28:46;;;;;;;;;;;;;;;6.04;nan;99849.38;5041308;28;20009;-76
2021/04/04 10:31:12;;;;;;;;;;;;;;;6.02;nan;99851.06;5041137;28;19930;-76
2021/04/04 10:33:37;;;;;;;;;;;;;;;6.08;nan;99856.19;5041478;28;19921;-76
2021/04/04 10:36:10;;;;;;;;;;;;;;;5.94;nan;99850.22;5025768;28;19922;-76
2021/04/04 10:38:35;;;;;;;;;;;;;;;6.47;nan;99844.22;5058896;28;19920;-76
2021/04/04 10:41:01;;;;;;;;;;;;;;;5.85;nan;99849.34;5041527;28;19930;-76
2021/04/04 10:43:42;;;;;;;;;;;;;;;5.99;nan;99840.84;5024808;28;20031;-76
2021/04/04 10:46:12;;;;;;;;;;;;;;;5.54;nan;99839.91;5041427;28;19952;-76
2021/04/04 10:48:40;;;;;;;;;;;;;;;5.69;nan;99837.41;5041071;28;19921;-76
2021/04/04 10:51:06;;;;;;;;;;;;;;;6.11;nan;99834.88;5059309;28;20381;-76
2021/04/04 10:53:32;;;;;;;;;;;;;;;5.96;nan;99833.19;5057582;28;22974;-76
2021/04/04 10:55:58;;;;;;;;;;;;;;;6.02;nan;99836.59;5040976;28;20003;-76
2021/04/04 10:58:26;;;;;;;;;;;;;;;6.17;nan;99833.19;5024690;28;20269;-76
2021/04/04 11:00:52;;;;;;;;;;;;;;;6.08;nan;99830.63;5041374;28;19924;-76
2021/04/04 11:03:18;;;;;;;;;;;;;;;6.06;nan;99832.34;5059379;28;20898;-76
2021/04/04 11:05:43;;;;;;;;;;;;;;;6.12;nan;99824.66;5040893;28;19920;-76
2021/04/04 11:08:09;;;;;;;;;;;;;;;6.25;nan;99817.84;5058417;28;19921;-76
2021/04/04 11:10:34;;;;;;;;;;;;;;;6.52;nan;99811.78;5058264;28;19917;-77
2021/04/04 11:13:00;;;;;;;;;;;;;;;6.38;nan;99813.53;5025567;28;19924;-76
2021/04/04 11:15:27;;;;;;;;;;;;;;;6.30;nan;99811.00;5044837;28;20394;-76
2021/04/04 11:17:52;;;;;;;;;;;;;;;6.42;nan;99802.44;5045148;28;20266;-76
2021/04/04 11:20:19;;;;;;;;;;;;;;;6.52;nan;99801.56;5044722;28;19927;-75
2021/04/04 11:22:45;;;;;;;;;;;;;;;6.42;nan;99799.91;5045234;28;21045;-75
2021/04/04 11:25:14;;;;;;;;;;;;;;;6.57;nan;99794.75;5062262;28;19917;-75
2021/04/04 11:27:41;;;;;;;;;;;;;;;6.30;nan;99789.69;5028187;28;19924;-75
2021/04/04 11:30:30;;;;;;;;;;;;;;;6.19;nan;99788.00;5044604;28;20015;-76
2021/04/04 11:33:15;;;;;;;;;;;;;;;6.27;nan;99773.50;5052142;28;19928;-75
2021/04/04 11:35:59;;;;;;;;;;;;;;;6.09;nan;99776.09;5062264;28;19920;-76
2021/04/04 11:38:24;;;;;;;;;;;;;;;6.05;nan;99774.38;5044176;28;20284;-76
2021/04/04 11:41:08;;;;;;;;;;;;;;;6.26;nan;99774.34;5044726;28;19930;-75
2021/04/04 11:43:34;;;;;;;;;;;;;;;6.54;nan;99764.03;5059466;28;19948;-75
2021/04/04 11:46:00;;;;;;;;;;;;;;;6.28;nan;99767.50;5042765;28;19978;-76
2021/04/04 11:48:31;;;;;;;;;;;;;;;6.43;nan;99765.75;5026711;28;19955;-75
2021/04/04 11:51:12;;;;;;;;;;;;;;;6.72;nan;99762.25;5059442;28;19924;-75
2021/04/04 11:53:44;;;;;;;;;;;;;;;6.39;nan;99764.94;5060424;28;20289;-75
2021/04/04 11:56:09;;;;;;;;;;;;;;;6.10;nan;99772.66;5042192;28;19923;-75
2021/04/04 11:58:35;;;;;;;;;;;;;;;5.76;nan;99774.38;5043035;28;19920;-76
2021/04/04 12:01:00;;;;;;;;;;;;;;;6.15;nan;99765.84;5041050;28;19920;-75
2021/04/04 12:03:27;;;;;;;;;;;;;;;6.46;nan;99755.53;5040869;28;19958;-75
2021/04/04 12:05:52;;;;;;;;;;;;;;;6.36;nan;99769.19;5042932;28;20601;-75
2021/04/04 12:08:26;;;;;;;;;;;;;;;6.14;nan;99765.84;5041879;28;19925;-75
2021/04/04 12:10:56;;;;;;;;;;;;;;;6.14;nan;99758.19;5042842;28;19928;-76
2021/04/04 12:13:22;;;;;;;;;;;;;;;6.16;nan;99762.44;5059647;28;19920;-76
2021/04/04 12:15:47;;;;;;;;;;;;;;;6.07;nan;99757.34;5043194;28;19966;-76
2021/04/04 12:18:13;;;;;;;;;;;;;;;6.17;nan;99748.78;5041094;28;19916;-76
2021/04/04 12:20:39;;;;;;;;;;;;;;;6.59;nan;99751.22;5025861;28;19979;-76
2021/04/04 12:23:12;;;;;;;;;;;;;;;6.19;nan;99749.63;5025600;28;19935;-75
2021/04/04 12:25:37;;;;;;;;;;;;;;;6.51;nan;99741.00;5042687;28;19916;-76
2021/04/04 12:28:03;;;;;;;;;;;;;;;6.48;nan;99734.22;5059978;28;19923;-76
2021/04/04 12:30:35;;;;;;;;;;;;;;;6.05;nan;99743.69;5041930;28;19924;-76
2021/04/04 12:33:00;;;;;;;;;;;;;;;6.09;nan;99727.50;5059535;28;19925;-76
2021/04/04 12:35:25;;;;;;;;;;;;;;;6.09;nan;99722.41;5059779;28;19916;-76
2021/04/04 12:37:50;;;;;;;;;;;;;;;6.06;nan;99723.22;5059512;28;19921;-76
2021/04/04 12:40:16;;;;;;;;;;;;;;;6.14;nan;99723.22;5041997;28;19925;-76
2021/04/04 12:42:41;;;;;;;;;;;;;;;6.44;nan;99700.97;5042029;28;19928;-76
2021/04/04 12:45:08;;;;;;;;;;;;;;;6.65;nan;99705.97;5060563;28;20003;-76
2021/04/04 12:47:33;;;;;;;;;;;;;;;6.38;nan;99706.94;5041731;28;19920;-76
2021/04/04 12:50:00;;;;;;;;;;;;;;;6.61;nan;99699.16;5040868;28;19970;-76
2021/04/04 12:52:35;;;;;;;;;;;;;;;6.62;nan;99700.03;5059546;28;19974;-76
2021/04/04 12:55:13;;;;;;;;;;;;;;;6.45;nan;99698.41;5042345;28;19921;-76
2021/04/04 12:57:39;;;;;;;;;;;;;;;6.92;nan;99688.78;5060033;28;20328;-75
2021/04/04 13:00:05;;;;;;;;;;;;;;;6.78;nan;99693.13;5041793;28;19928;-75
2021/04/04 13:02:30;;;;;;;;;;;;;;;7.30;nan;99685.09;5043388;28;19931;-75
2021/04/04 13:04:56;;;;;;;;;;;;;;;7.01;nan;99678.47;5043276;28;19916;-75
2021/04/04 13:07:21;;;;;;;;;;;;;;;6.63;nan;99682.09;5042825;28;20381;-75
2021/04/04 13:09:47;;;;;;;;;;;;;;;6.76;nan;99675.22;5060583;28;19916;-75
2021/04/04 13:12:12;;;;;;;;;;;;;;;6.93;nan;99674.25;5061718;28;19924;-75
2021/04/04 13:14:38;;;;;;;;;;;;;;;7.21;nan;99667.25;5060928;28;20391;-75
2021/04/04 13:17:03;;;;;;;;;;;;;;;6.81;nan;99664.94;5036867;28;19947;-75
2021/04/04 13:19:37;;;;;;;;;;;;;;;6.73;nan;99666.69;5025496;28;19967;-75
2021/04/04 13:22:02;;;;;;;;;;;;;;;6.85;nan;99662.34;5042040;28;19959;-75
2021/04/04 13:24:29;;;;;;;;;;;;;;;6.86;nan;99658.91;5059578;28;19982;-75